Time;durP1;ratioP1;P1;durP2;ratioP2;P2;SDS_P1;SDS_P2;PMS_P1;PMS_P2;Temp;Humidity;BMP_temperature;BMP_pressure;BME280_temperature;BME280_humidity;BME280_pressure;Samples;Min_cycle;Max_cycle;Signal;HPM_P1;HPM_P2
2021/12/11 00:00:55;;;;;;;5.17;1.50;;;5.60;99.90;;;;;;4990755;28;20341;-93
2021/12/11 00:03:31;;;;;;;4.80;1.57;;;5.70;99.90;;;;;;4991299;28;20652;-93
2021/12/11 00:08:41;;;;;;;4.93;2.77;;;5.70;99.90;;;;;;4981843;28;20226;-93
2021/12/11 00:11:20;;;;;;;7.23;1.60;;;5.70;99.90;;;;;;4980412;28;20203;-94
2021/12/11 00:14:00;;;;;;;5.83;1.83;;;5.70;99.90;;;;;;4990071;28;20199;-93
2021/12/11 00:27:38;;;;;;;2.93;1.87;;;5.70;99.90;;;;;;4990153;28;20237;-92
2021/12/11 00:30:13;;;;;;;3.27;1.33;;;5.70;99.90;;;;;;4991419;28;20202;-90
2021/12/11 00:32:45;;;;;;;2.60;1.60;;;5.70;99.90;;;;;;4988710;28;20242;-93
2021/12/11 00:38:17;;;;;;;7.67;2.33;;;5.60;99.90;;;;;;5686921;23;20198;-93
2021/12/11 00:40:55;;;;;;;4.47;1.37;;;5.60;99.90;;;;;;5005713;28;20245;-93
2021/12/11 00:43:34;;;;;;;2.97;1.23;;;5.60;99.90;;;;;;5007235;28;20198;-92
2021/12/11 00:46:10;;;;;;;5.93;1.50;;;5.60;99.90;;;;;;5000746;28;20199;-95
2021/12/11 00:48:42;;;;;;;1.83;1.10;;;5.60;99.90;;;;;;5009606;28;20201;-93
2021/12/11 00:51:21;;;;;;;2.83;1.10;;;5.60;99.90;;;;;;5008069;28;20225;-90
2021/12/11 00:53:56;;;;;;;2.97;1.70;;;5.70;99.90;;;;;;5003271;28;20215;-90
2021/12/11 00:56:31;;;;;;;3.13;1.20;;;5.70;99.90;;;;;;5007946;28;20215;-91
2021/12/11 00:59:10;;;;;;;2.30;1.20;;;5.80;99.90;;;;;;4994187;28;20226;-91
2021/12/11 01:01:53;;;;;;;2.20;1.63;;;5.80;99.90;;;;;;5003089;28;20206;-92
2021/12/11 01:04:29;;;;;;;2.73;1.90;;;5.80;99.90;;;;;;5008197;28;20206;-91
2021/12/11 01:07:06;;;;;;;4.97;3.53;;;5.90;99.90;;;;;;5002673;28;20238;-92
2021/12/11 01:09:42;;;;;;;2.63;1.23;;;5.90;99.90;;;;;;4995369;28;20264;-92
2021/12/11 01:12:29;;;;;;;2.23;1.93;;;6.00;99.90;;;;;;4997037;28;20210;-93
2021/12/11 01:17:59;;;;;;;1.70;1.00;;;6.10;99.90;;;;;;5215433;23;20313;-91
2021/12/11 01:20:36;;;;;;;4.20;1.50;;;6.10;99.90;;;;;;5002576;28;20225;-91
2021/12/11 01:23:27;;;;;;;1.87;1.10;;;6.10;99.90;;;;;;5010540;28;20210;-94
2021/12/11 01:26:00;;;;;;;2.30;1.20;;;6.20;99.90;;;;;;5004509;28;20191;-93
2021/12/11 01:28:36;;;;;;;4.13;1.00;;;6.20;99.90;;;;;;5013846;28;20255;-93
2021/12/11 01:31:13;;;;;;;1.80;0.93;;;6.20;99.90;;;;;;5014302;28;20230;-91
2021/12/11 01:33:48;;;;;;;3.13;2.10;;;6.20;99.90;;;;;;5016323;28;20258;-94
2021/12/11 01:36:22;;;;;;;2.07;0.83;;;6.20;99.90;;;;;;5016955;28;20201;-92
2021/12/11 01:38:57;;;;;;;2.53;1.77;;;6.30;99.90;;;;;;5019820;28;20273;-90
2021/12/11 01:41:31;;;;;;;2.40;0.90;;;6.30;99.90;;;;;;5019571;28;20197;-92
2021/12/11 01:44:14;;;;;;;2.50;1.10;;;6.30;99.90;;;;;;5015906;28;20205;-90
2021/12/11 01:46:48;;;;;;;1.23;0.70;;;6.30;99.90;;;;;;5010621;28;20205;-90
2021/12/11 01:49:25;;;;;;;2.27;0.80;;;6.40;99.90;;;;;;5016523;28;20220;-91
2021/12/11 01:52:02;;;;;;;1.77;0.80;;;6.40;99.90;;;;;;5011485;28;20197;-90
2021/12/11 01:54:37;;;;;;;1.57;0.60;;;6.40;99.90;;;;;;5019426;28;20190;-90
2021/12/11 01:57:15;;;;;;;1.23;0.60;;;6.40;99.90;;;;;;5017697;28;20268;-90
2021/12/11 01:59:54;;;;;;;2.13;1.77;;;6.50;99.90;;;;;;5023144;28;20206;-91
2021/12/11 02:02:29;;;;;;;2.80;0.80;;;6.40;99.90;;;;;;5026213;28;20282;-90
2021/12/11 02:05:13;;;;;;;1.10;1.00;;;6.50;99.90;;;;;;5026198;28;20197;-90
2021/12/11 02:07:56;;;;;;;0.90;0.73;;;6.50;99.90;;;;;;5024479;28;20253;-91
2021/12/11 02:13:29;;;;;;;1.50;0.60;;;6.50;99.90;;;;;;4670663;28;9999724;-94
2021/12/11 02:16:01;;;;;;;0.73;0.63;;;6.50;99.90;;;;;;5021884;28;20456;-91
2021/12/11 02:18:46;;;;;;;1.33;0.63;;;6.50;99.90;;;;;;5015311;28;20215;-91
2021/12/11 02:21:36;;;;;;;2.03;1.00;;;6.50;99.90;;;;;;5022756;28;20284;-90
2021/12/11 02:24:20;;;;;;;1.03;0.70;;;6.50;99.90;;;;;;5022531;28;20194;-91
2021/12/11 02:26:57;;;;;;;0.50;0.50;;;6.50;99.90;;;;;;5011735;28;20238;-92
2021/12/11 02:29:34;;;;;;;0.93;0.67;;;6.50;99.90;;;;;;5017704;28;20260;-93
2021/12/11 02:32:12;;;;;;;4.70;4.40;;;6.50;99.90;;;;;;5019964;28;20205;-93
2021/12/11 02:34:55;;;;;;;0.70;0.60;;;6.60;99.90;;;;;;5022090;28;20205;-93
2021/12/11 02:37:39;;;;;;;1.60;0.50;;;6.60;99.90;;;;;;5022322;28;20209;-93
2021/12/11 02:40:22;;;;;;;3.20;1.43;;;6.60;99.90;;;;;;5021150;28;20205;-96
2021/12/11 02:42:59;;;;;;;0.77;0.50;;;6.60;99.90;;;;;;5019513;28;20183;-93
2021/12/11 02:45:37;;;;;;;9.43;8.60;;;6.60;99.90;;;;;;5303237;23;20226;-91
2021/12/11 03:01:53;;;;;;;0.60;0.40;;;6.90;99.90;;;;;;4997609;28;20277;-94
2021/12/11 03:04:34;;;;;;;0.50;0.50;;;6.80;99.90;;;;;;5005422;28;20251;-92
2021/12/11 03:07:10;;;;;;;3.53;3.33;;;6.80;99.90;;;;;;4986319;28;20242;-95
2021/12/11 03:09:46;;;;;;;2.33;0.63;;;6.70;99.90;;;;;;4998546;28;20293;-92
2021/12/11 03:12:18;;;;;;;0.77;0.60;;;6.60;99.90;;;;;;5004440;28;20198;-93
2021/12/11 03:14:51;;;;;;;0.50;0.30;;;6.60;99.90;;;;;;4996650;28;20215;-94
2021/12/11 03:17:27;;;;;;;1.70;1.33;;;6.50;99.90;;;;;;5002325;28;20206;-93
2021/12/11 03:20:04;;;;;;;0.37;0.37;;;6.50;99.90;;;;;;5006259;28;20210;-93
2021/12/11 03:22:37;;;;;;;0.90;0.50;;;6.50;99.90;;;;;;5008937;28;20237;-92
2021/12/11 03:25:12;;;;;;;1.90;0.90;;;6.50;99.90;;;;;;5010272;28;20203;-94
2021/12/11 03:27:43;;;;;;;0.67;0.50;;;6.50;99.90;;;;;;5083143;23;20260;-89
2021/12/11 03:30:21;;;;;;;2.20;0.60;;;6.40;99.90;;;;;;5028703;28;20186;-95
2021/12/11 03:41:09;;;;;;;1.23;0.80;;;6.40;99.90;;;;;;5001535;28;20214;-94
2021/12/11 03:43:41;;;;;;;0.50;0.50;;;6.40;99.90;;;;;;5006122;28;20206;-92
2021/12/11 03:48:56;;;;;;;4.10;3.80;;;6.50;99.90;;;;;;5573294;23;20258;-96
2021/12/11 03:51:32;;;;;;;25.87;5.50;;;6.50;99.90;;;;;;5003998;28;20199;-91
2021/12/11 03:54:22;;;;;;;0.67;0.47;;;6.50;99.90;;;;;;5002422;28;20214;-95
2021/12/11 03:56:56;;;;;;;0.47;0.40;;;6.60;99.90;;;;;;4997832;28;20210;-93
2021/12/11 03:59:28;;;;;;;2.43;1.13;;;6.70;99.90;;;;;;5045836;23;20487;-92
2021/12/11 04:02:06;;;;;;;0.60;0.43;;;6.70;99.90;;;;;;5020754;28;20201;-92
2021/12/11 04:04:41;;;;;;;0.83;0.83;;;6.80;99.90;;;;;;5020875;28;20202;-92
2021/12/11 04:07:16;;;;;;;0.80;0.80;;;6.90;99.90;;;;;;5026905;28;20248;-94
2021/12/11 04:09:48;;;;;;;0.47;0.47;;;6.90;99.90;;;;;;5026217;28;20255;-93
2021/12/11 04:12:36;;;;;;;0.43;0.43;;;6.90;99.90;;;;;;5027419;28;20196;-94
2021/12/11 04:15:14;;;;;;;1.07;0.50;;;6.90;99.90;;;;;;5025096;28;20198;-94
2021/12/11 04:17:46;;;;;;;1.87;0.70;;;6.90;99.90;;;;;;5471039;23;20227;-94
2021/12/11 04:20:21;;;;;;;0.83;0.70;;;6.80;99.90;;;;;;5025645;28;20233;-93
2021/12/11 04:22:54;;;;;;;1.90;1.80;;;6.70;99.90;;;;;;5024051;28;20207;-95
2021/12/11 04:25:28;;;;;;;4.40;4.00;;;6.90;99.90;;;;;;5025199;28;20551;-96
2021/12/11 04:28:03;;;;;;;1.57;1.37;;;7.00;99.90;;;;;;5016061;28;20251;-96
2021/12/11 04:30:35;;;;;;;3.63;0.70;;;7.00;99.90;;;;;;5025034;28;20197;-95
2021/12/11 04:33:06;;;;;;;0.80;0.60;;;7.00;99.90;;;;;;5026161;28;20265;-96
2021/12/11 04:35:39;;;;;;;0.60;0.50;;;7.00;99.90;;;;;;5016593;28;20238;-94
2021/12/11 04:38:11;;;;;;;4.00;3.77;;;7.00;99.90;;;;;;5023871;28;20218;-93
2021/12/11 04:40:49;;;;;;;0.73;0.60;;;7.00;99.90;;;;;;5020365;28;20221;-93
2021/12/11 04:43:25;;;;;;;1.33;1.23;;;7.10;99.90;;;;;;5002567;28;20210;-95
2021/12/11 04:45:59;;;;;;;0.63;0.60;;;7.10;99.90;;;;;;5004016;28;20187;-94
2021/12/11 04:48:53;;;;;;;32.17;11.87;;;7.10;99.90;;;;;;5001166;28;20249;-94
2021/12/11 04:51:32;;;;;;;1.27;0.47;;;7.00;99.90;;;;;;5011365;28;20273;-94
2021/12/11 04:54:18;;;;;;;2.10;1.93;;;7.00;99.90;;;;;;5011235;28;20206;-94
2021/12/11 04:59:52;;;;;;;0.70;0.50;;;6.90;99.90;;;;;;5003337;28;20213;-95
2021/12/11 05:05:23;;;;;;;3.30;3.07;;;6.80;99.90;;;;;;4987288;28;20202;-94
2021/12/11 05:08:14;;;;;;;0.70;0.50;;;6.80;99.90;;;;;;4990103;28;20226;-93
2021/12/11 05:10:53;;;;;;;1.07;0.87;;;6.70;99.90;;;;;;4997449;28;20230;-92
2021/12/11 05:13:26;;;;;;;0.70;0.70;;;6.70;99.90;;;;;;4998379;28;20233;-93
2021/12/11 05:16:04;;;;;;;1.83;0.60;;;6.70;99.90;;;;;;4999672;28;20274;-92
2021/12/11 05:18:38;;;;;;;2.37;1.47;;;6.80;99.90;;;;;;5004553;28;20233;-92
2021/12/11 05:21:13;;;;;;;0.77;0.50;;;6.90;99.90;;;;;;5009118;28;20206;-93
2021/12/11 05:23:45;;;;;;;1.27;0.87;;;6.90;99.90;;;;;;5004633;28;20236;-92
2021/12/11 05:26:18;;;;;;;1.00;0.70;;;6.90;99.90;;;;;;5010009;28;20202;-93
2021/12/11 05:28:52;;;;;;;1.43;1.00;;;6.90;99.90;;;;;;5010973;28;20628;-93
2021/12/11 05:31:27;;;;;;;0.40;0.40;;;7.00;99.90;;;;;;4998690;28;20270;-93
2021/12/11 05:33:59;;;;;;;0.70;0.70;;;6.90;99.90;;;;;;5026445;28;20205;-95
2021/12/11 05:36:32;;;;;;;1.60;1.50;;;7.00;99.90;;;;;;4998019;28;20309;-95
2021/12/11 05:39:10;;;;;;;0.80;0.50;;;7.00;99.90;;;;;;5004970;28;20210;-94
2021/12/11 05:41:41;;;;;;;0.70;0.70;;;7.10;99.90;;;;;;5000738;28;20198;-93
2021/12/11 05:44:13;;;;;;;0.50;0.50;;;7.10;99.90;;;;;;4979826;28;20211;-94
2021/12/11 05:46:48;;;;;;;5.43;4.93;;;7.00;99.90;;;;;;4993625;28;20242;-96
2021/12/11 05:49:21;;;;;;;1.07;0.97;;;7.10;99.90;;;;;;4997051;28;20246;-95
2021/12/11 05:51:53;;;;;;;10.07;7.23;;;7.20;99.90;;;;;;4998922;28;20214;-94
2021/12/11 05:54:28;;;;;;;1.00;1.00;;;7.10;99.90;;;;;;4978525;28;20259;-94
2021/12/11 05:57:05;;;;;;;1.10;0.70;;;7.00;99.90;;;;;;4990235;28;20593;-91
2021/12/11 05:59:37;;;;;;;1.53;0.67;;;6.90;99.90;;;;;;4988236;28;20222;-95
2021/12/11 06:02:15;;;;;;;4.27;3.97;;;6.90;99.90;;;;;;5004756;28;20712;-95
2021/12/11 06:04:49;;;;;;;1.30;0.57;;;6.80;99.90;;;;;;5002000;28;20262;-95
2021/12/11 06:07:25;;;;;;;0.73;0.60;;;6.80;99.90;;;;;;4995485;28;20249;-93
2021/12/11 06:09:59;;;;;;;1.00;1.00;;;6.70;99.90;;;;;;4987318;28;20242;-94
2021/12/11 06:12:32;;;;;;;0.80;0.63;;;6.60;99.90;;;;;;5005502;28;20685;-95
2021/12/11 06:15:06;;;;;;;1.70;1.60;;;6.70;99.90;;;;;;4999277;28;20205;-94
2021/12/11 06:17:41;;;;;;;1.10;0.87;;;6.70;99.90;;;;;;5011415;28;20186;-92
2021/12/11 06:20:16;;;;;;;1.60;1.50;;;6.80;99.90;;;;;;5005098;28;20206;-94
2021/12/11 06:22:48;;;;;;;0.83;0.80;;;6.80;99.90;;;;;;5004252;28;20194;-95
2021/12/11 06:25:25;;;;;;;0.93;0.83;;;6.70;99.90;;;;;;5002084;28;20210;-93
2021/12/11 06:27:57;;;;;;;1.80;1.67;;;6.70;99.90;;;;;;5000455;28;20324;-94
2021/12/11 06:30:29;;;;;;;8.03;5.03;;;6.60;99.90;;;;;;5002630;28;20249;-90
2021/12/11 06:33:04;;;;;;;1.30;1.20;;;6.60;99.90;;;;;;5015910;28;20200;-94
2021/12/11 06:35:41;;;;;;;1.27;0.60;;;6.50;99.90;;;;;;5015611;28;20442;-94
2021/12/11 06:40:50;;;;;;;0.77;0.63;;;6.40;99.90;;;;;;6041056;23;20228;-90
2021/12/11 06:43:21;;;;;;;3.83;3.57;;;6.40;99.90;;;;;;5005390;28;20211;-96
2021/12/11 06:45:53;;;;;;;1.20;1.00;;;6.40;99.90;;;;;;4994020;28;20238;-95
2021/12/11 06:48:27;;;;;;;1.53;0.90;;;6.30;99.90;;;;;;5004883;28;20229;-96
2021/12/11 06:50:59;;;;;;;1.60;0.87;;;6.30;99.90;;;;;;4988248;28;20230;-94
2021/12/11 06:53:35;;;;;;;1.70;0.83;;;6.30;99.90;;;;;;5003628;28;20234;-93
2021/12/11 06:56:10;;;;;;;2.40;0.93;;;6.30;99.90;;;;;;4999418;28;20217;-95
2021/12/11 06:58:41;;;;;;;1.40;1.30;;;6.30;99.90;;;;;;5002347;28;20256;-95
2021/12/11 07:01:14;;;;;;;1.57;1.10;;;6.30;99.90;;;;;;5002001;28;20202;-95
2021/12/11 07:03:48;;;;;;;0.90;0.80;;;6.30;99.90;;;;;;5003981;28;20237;-95
2021/12/11 07:06:21;;;;;;;2.27;1.10;;;6.30;99.90;;;;;;4992266;28;20219;-93
2021/12/11 07:08:53;;;;;;;2.20;2.00;;;6.30;99.90;;;;;;4997674;28;20240;-94
2021/12/11 07:11:26;;;;;;;1.80;1.10;;;6.30;99.90;;;;;;5003594;28;20234;-93
2021/12/11 07:13:58;;;;;;;1.30;1.00;;;6.30;99.90;;;;;;5001599;28;20261;-96
2021/12/11 07:16:31;;;;;;;2.67;2.47;;;6.30;99.90;;;;;;4989880;28;20226;-95
2021/12/11 07:19:08;;;;;;;3.97;3.43;;;6.20;99.90;;;;;;4991308;28;20628;-92
2021/12/11 07:21:40;;;;;;;3.87;3.53;;;6.20;99.90;;;;;;5010059;28;20228;-94
2021/12/11 07:24:16;;;;;;;1.53;1.10;;;6.20;99.90;;;;;;5011896;28;20214;-94
2021/12/11 07:26:47;;;;;;;1.93;1.23;;;6.20;99.90;;;;;;5001608;28;20206;-94
2021/12/11 07:29:21;;;;;;;1.00;0.90;;;6.20;99.90;;;;;;4988257;28;20215;-93
2021/12/11 07:31:53;;;;;;;2.47;1.23;;;6.20;99.90;;;;;;5020772;28;20260;-93
2021/12/11 07:34:27;;;;;;;1.93;1.00;;;6.20;99.90;;;;;;5022514;28;20661;-94
2021/12/11 07:36:59;;;;;;;1.87;1.43;;;6.20;99.90;;;;;;4989441;28;20210;-94
2021/12/11 07:39:30;;;;;;;1.63;1.53;;;6.10;99.90;;;;;;4992667;28;20202;-95
2021/12/11 07:42:03;;;;;;;2.63;1.10;;;6.10;99.90;;;;;;4998107;28;20270;-93
2021/12/11 07:44:37;;;;;;;2.67;1.10;;;6.20;99.90;;;;;;4993064;28;20274;-94
2021/12/11 07:47:10;;;;;;;2.17;1.10;;;6.10;99.90;;;;;;4994227;28;20207;-93
2021/12/11 07:49:44;;;;;;;1.60;1.33;;;6.10;99.90;;;;;;5007337;28;20284;-94
2021/12/11 07:52:15;;;;;;;3.10;0.90;;;6.10;99.90;;;;;;5012087;28;20221;-94
2021/12/11 07:54:46;;;;;;;1.53;0.90;;;6.20;99.90;;;;;;4998384;28;20203;-95
2021/12/11 07:57:17;;;;;;;1.47;1.13;;;6.20;99.90;;;;;;4998598;28;20682;-95
2021/12/11 07:59:49;;;;;;;1.33;0.80;;;6.10;99.90;;;;;;4994453;28;20218;-95
2021/12/11 08:02:21;;;;;;;2.47;2.27;;;6.10;99.90;;;;;;5004505;28;20641;-96
2021/12/11 08:04:55;;;;;;;0.80;0.70;;;6.10;99.90;;;;;;5010090;28;20221;-95
2021/12/11 08:07:26;;;;;;;1.77;0.90;;;6.20;99.90;;;;;;5009049;28;20202;-95
2021/12/11 08:09:59;;;;;;;1.77;0.80;;;6.20;99.90;;;;;;5009660;28;20210;-96
2021/12/11 08:12:30;;;;;;;4.33;3.87;;;6.20;99.90;;;;;;5004848;28;20215;-95
2021/12/11 08:15:02;;;;;;;1.63;0.90;;;6.20;99.90;;;;;;4997223;28;20207;-96
2021/12/11 08:17:33;;;;;;;2.17;1.07;;;6.20;99.90;;;;;;4990079;28;20214;-94
2021/12/11 08:20:09;;;;;;;1.73;1.50;;;6.20;99.90;;;;;;5000997;28;20221;-93
2021/12/11 08:22:42;;;;;;;2.33;1.07;;;6.20;99.90;;;;;;4982470;28;20210;-94
2021/12/11 08:25:14;;;;;;;1.93;0.90;;;6.20;99.90;;;;;;5000359;28;20246;-94
2021/12/11 08:27:46;;;;;;;1.57;1.30;;;6.20;99.90;;;;;;4999359;28;20246;-95
2021/12/11 08:30:18;;;;;;;1.77;0.70;;;6.20;99.90;;;;;;5000188;28;20265;-94
2021/12/11 08:32:50;;;;;;;1.73;0.90;;;6.20;99.90;;;;;;4996602;28;20199;-94
2021/12/11 08:35:24;;;;;;;3.03;1.47;;;6.30;99.90;;;;;;5008662;28;20225;-94
2021/12/11 08:37:55;;;;;;;2.60;2.23;;;6.30;99.90;;;;;;4986211;28;20214;-95
2021/12/11 08:40:29;;;;;;;0.70;0.70;;;6.30;99.90;;;;;;5009417;28;20199;-95
2021/12/11 08:43:01;;;;;;;1.27;0.80;;;6.30;99.90;;;;;;5016559;28;20214;-93
2021/12/11 08:45:45;;;;;;;1.20;0.90;;;6.30;99.90;;;;;;5014205;28;20305;-95
2021/12/11 08:48:18;;;;;;;4.93;4.33;;;6.30;99.90;;;;;;4995623;28;20229;-94
2021/12/11 08:50:55;;;;;;;1.37;0.80;;;6.30;99.90;;;;;;5003954;28;20233;-93
2021/12/11 08:53:27;;;;;;;0.70;0.50;;;6.20;99.90;;;;;;5002645;28;20201;-94
2021/12/11 08:55:59;;;;;;;4.77;1.40;;;6.20;99.90;;;;;;5001278;28;20210;-95
2021/12/11 08:58:32;;;;;;;2.83;1.80;;;6.20;99.90;;;;;;5000741;28;20262;-93
2021/12/11 09:01:08;;;;;;;7.57;1.57;;;6.20;99.90;;;;;;4999590;28;20202;-95
2021/12/11 09:03:42;;;;;;;8.90;5.70;;;6.20;99.90;;;;;;5005478;28;20206;-94
2021/12/11 09:06:19;;;;;;;2.80;0.80;;;6.20;99.90;;;;;;5017402;28;20254;-94
2021/12/11 09:08:53;;;;;;;3.63;0.60;;;6.10;99.90;;;;;;5005894;28;20282;-95
2021/12/11 09:11:29;;;;;;;1.17;0.97;;;6.10;99.90;;;;;;5011835;28;20244;-96
2021/12/11 09:14:05;;;;;;;5.63;5.17;;;6.10;99.90;;;;;;5005152;28;20214;-95
2021/12/11 09:16:43;;;;;;;50.93;10.33;;;6.00;99.90;;;;;;5004661;28;20205;-93
2021/12/11 09:19:18;;;;;;;0.30;0.30;;;6.00;99.90;;;;;;5002452;28;20245;-94
2021/12/11 09:21:58;;;;;;;0.47;0.40;;;6.00;99.90;;;;;;4997389;28;20210;-94
2021/12/11 09:24:34;;;;;;;1.70;0.97;;;5.90;99.90;;;;;;4986239;28;20213;-94
2021/12/11 09:27:12;;;;;;;2.63;2.50;;;5.90;99.90;;;;;;4992455;28;20286;-94
2021/12/11 09:29:47;;;;;;;3.90;1.13;;;5.90;99.90;;;;;;4983175;28;20271;-95
2021/12/11 09:32:25;;;;;;;76.30;17.27;;;5.90;99.90;;;;;;4990920;28;20301;-93
2021/12/11 09:35:00;;;;;;;1.23;0.30;;;5.90;99.90;;;;;;4999841;28;20617;-95
2021/12/11 09:37:34;;;;;;;1.73;0.53;;;5.90;99.90;;;;;;4987231;28;20625;-95
2021/12/11 09:40:10;;;;;;;0.70;0.70;;;5.90;99.90;;;;;;4986362;28;20218;-96
2021/12/11 09:42:40;;;;;;;8.70;3.67;;;5.90;99.90;;;;;;4998985;28;20678;-95
2021/12/11 09:45:17;;;;;;;1.27;0.40;;;5.80;99.90;;;;;;4998351;28;20288;-95
2021/12/11 09:47:59;;;;;;;0.80;0.70;;;5.80;99.90;;;;;;4978401;28;20617;-94
2021/12/11 09:50:43;;;;;;;0.80;0.60;;;5.80;99.90;;;;;;4994948;28;20245;-94
2021/12/11 09:53:15;;;;;;;0.57;0.40;;;5.80;99.90;;;;;;4996350;28;20267;-95
2021/12/11 09:55:48;;;;;;;1.90;1.80;;;5.80;99.90;;;;;;4985454;28;20217;-93
2021/12/11 09:58:23;;;;;;;0.97;0.97;;;5.80;99.90;;;;;;4998546;28;20566;-95
2021/12/11 10:01:01;;;;;;;0.40;0.20;;;5.80;99.90;;;;;;4996358;28;20206;-92
2021/12/11 10:03:39;;;;;;;6.13;5.10;;;5.80;99.90;;;;;;4987600;28;20203;-94
2021/12/11 10:06:25;;;;;;;1.37;0.37;;;5.70;99.90;;;;;;4996524;28;20218;-94
2021/12/11 10:09:17;;;;;;;1.97;1.77;;;5.70;99.90;;;;;;4988157;28;21025;-95
2021/12/11 10:11:54;;;;;;;3.67;3.47;;;5.70;99.90;;;;;;4999255;28;20274;-95
2021/12/11 10:14:31;;;;;;;32.50;7.87;;;5.70;99.90;;;;;;4986015;28;20206;-94
2021/12/11 10:17:11;;;;;;;1.60;1.50;;;5.70;99.90;;;;;;5002870;28;20268;-93
2021/12/11 10:19:44;;;;;;;0.20;0.20;;;5.70;99.90;;;;;;5011345;28;20207;-94
2021/12/11 10:22:19;;;;;;;0.57;0.37;;;5.70;99.90;;;;;;5005196;28;20218;-93
2021/12/11 10:24:51;;;;;;;0.30;0.30;;;5.80;99.90;;;;;;4991848;28;20260;-95
2021/12/11 10:27:26;;;;;;;5.03;4.63;;;5.80;99.90;;;;;;4982955;28;20286;-95
2021/12/11 10:29:59;;;;;;;0.10;0.10;;;5.80;99.90;;;;;;4982240;28;20213;-93
2021/12/11 10:32:33;;;;;;;0.60;0.50;;;5.70;99.90;;;;;;4982398;28;20234;-94
2021/12/11 10:35:09;;;;;;;4.43;0.30;;;5.70;99.90;;;;;;5003480;28;20233;-93
2021/12/11 10:37:42;;;;;;;2.63;1.27;;;5.70;99.90;;;;;;4982317;28;20648;-94
2021/12/11 10:40:20;;;;;;;0.53;0.37;;;5.70;99.90;;;;;;4998883;28;20626;-94
2021/12/11 10:42:57;;;;;;;1.40;0.57;;;5.70;99.90;;;;;;4985237;28;20250;-93
2021/12/11 10:45:31;;;;;;;1.43;1.40;;;5.70;99.90;;;;;;4993495;28;20304;-93
2021/12/11 10:48:08;;;;;;;0.40;0.40;;;5.70;99.90;;;;;;4986320;28;20211;-93
2021/12/11 10:50:44;;;;;;;0.53;0.20;;;5.70;99.90;;;;;;5010164;28;20221;-94
2021/12/11 10:53:19;;;;;;;1.17;1.10;;;5.60;99.90;;;;;;5019604;28;20257;-93
2021/12/11 10:55:57;;;;;;;1.27;0.87;;;5.60;99.90;;;;;;5017675;28;20209;-95
2021/12/11 10:58:30;;;;;;;2.63;1.03;;;5.60;99.90;;;;;;5001485;28;20210;-94
2021/12/11 11:01:08;;;;;;;0.63;0.43;;;5.60;99.90;;;;;;5000957;28;20290;-94
2021/12/11 11:03:48;;;;;;;0.20;0.20;;;5.70;99.90;;;;;;5005775;28;20206;-95
2021/12/11 11:06:20;;;;;;;1.00;0.40;;;5.70;99.90;;;;;;5022697;28;20240;-93
2021/12/11 11:08:54;;;;;;;0.20;0.20;;;5.70;99.90;;;;;;4996134;28;20203;-94
2021/12/11 11:11:29;;;;;;;1.80;1.70;;;5.70;99.90;;;;;;5010701;28;20241;-93
2021/12/11 11:14:01;;;;;;;1.40;1.33;;;5.70;99.90;;;;;;4989394;28;20234;-96
2021/12/11 11:16:34;;;;;;;0.60;0.20;;;5.70;99.90;;;;;;4999554;28;20221;-94
2021/12/11 11:19:08;;;;;;;0.20;0.20;;;5.80;99.90;;;;;;5002488;28;20206;-95
2021/12/11 11:21:42;;;;;;;0.20;0.20;;;5.80;99.90;;;;;;5002622;28;20249;-95
2021/12/11 11:24:15;;;;;;;0.53;0.30;;;5.80;99.90;;;;;;5001566;28;20286;-92
2021/12/11 11:26:49;;;;;;;1.03;0.23;;;5.80;99.90;;;;;;4992939;28;20234;-91
2021/12/11 11:29:24;;;;;;;0.20;0.20;;;5.80;99.90;;;;;;4987129;28;20221;-94
2021/12/11 11:32:00;;;;;;;0.30;0.20;;;5.80;99.90;;;;;;4999651;28;20268;-93
2021/12/11 11:34:40;;;;;;;0.83;0.30;;;5.80;99.90;;;;;;4985018;28;20238;-93
2021/12/11 11:37:12;;;;;;;0.20;0.20;;;5.80;99.90;;;;;;4999769;28;20238;-93
2021/12/11 11:39:45;;;;;;;2.63;0.27;;;5.80;99.90;;;;;;4986296;28;20214;-94
2021/12/11 11:42:21;;;;;;;1.00;0.87;;;5.80;99.90;;;;;;4992372;28;20242;-94
2021/12/11 11:44:54;;;;;;;1.17;1.13;;;5.80;99.90;;;;;;4995691;28;20253;-93
2021/12/11 11:47:26;;;;;;;0.10;0.10;;;5.80;99.90;;;;;;5001128;28;20230;-94
2021/12/11 11:49:59;;;;;;;0.20;0.20;;;5.80;99.90;;;;;;5004976;28;20237;-94
2021/12/11 11:52:32;;;;;;;0.20;0.17;;;5.80;99.90;;;;;;4985497;28;20608;-95
2021/12/11 11:55:08;;;;;;;0.20;0.20;;;5.80;99.90;;;;;;4999670;28;20643;-94
2021/12/11 11:57:43;;;;;;;0.40;0.40;;;5.80;99.90;;;;;;4999980;28;20585;-94
2021/12/11 12:00:20;;;;;;;0.20;0.20;;;5.90;99.90;;;;;;4983791;28;20249;-95
2021/12/11 12:02:52;;;;;;;0.10;0.10;;;5.90;99.90;;;;;;4992601;28;20218;-93
2021/12/11 12:05:26;;;;;;;0.30;0.13;;;5.90;99.90;;;;;;4999177;28;20237;-92
2021/12/11 12:07:57;;;;;;;0.10;0.10;;;5.90;99.90;;;;;;5000576;28;20261;-93
2021/12/11 12:10:31;;;;;;;0.47;0.10;;;5.90;99.90;;;;;;5001421;28;20211;-92
2021/12/11 12:13:07;;;;;;;0.10;0.10;;;5.90;99.90;;;;;;5003289;28;20594;-92
2021/12/11 12:15:41;;;;;;;0.20;0.20;;;5.90;99.90;;;;;;4995545;28;20213;-94
2021/12/11 12:18:12;;;;;;;0.10;0.10;;;5.90;99.90;;;;;;4982745;28;20265;-93
2021/12/11 12:20:48;;;;;;;0.50;0.10;;;5.90;99.90;;;;;;4991802;28;20219;-93
2021/12/11 12:23:22;;;;;;;0.10;0.10;;;5.90;99.90;;;;;;4980190;28;20664;-93
2021/12/11 12:25:55;;;;;;;6.83;3.07;;;5.90;99.90;;;;;;4979951;28;20210;-94
2021/12/11 12:28:27;;;;;;;0.07;0.07;;;6.00;99.90;;;;;;4984364;28;20270;-94
2021/12/11 12:31:02;;;;;;;1.50;1.50;;;5.90;99.90;;;;;;4980256;28;20265;-95
2021/12/11 12:33:34;;;;;;;0.50;0.50;;;6.00;99.90;;;;;;4988259;28;20242;-93
2021/12/11 12:36:07;;;;;;;0.20;0.20;;;5.90;99.90;;;;;;4984433;28;20279;-94
2021/12/11 12:38:39;;;;;;;2.20;0.33;;;5.90;99.90;;;;;;4993746;28;20278;-93
2021/12/11 12:41:14;;;;;;;0.20;0.20;;;6.00;99.90;;;;;;4979508;28;20219;-94
2021/12/11 12:44:16;;;;;;;0.23;0.10;;;5.90;99.90;;;;;;4988871;28;20210;-93
2021/12/11 12:47:05;;;;;;;0.10;0.10;;;6.00;99.90;;;;;;4987319;28;20207;-93
2021/12/11 12:49:39;;;;;;;0.20;0.20;;;6.00;99.90;;;;;;4990713;28;20206;-93
2021/12/11 12:52:18;;;;;;;0.10;0.10;;;6.00;99.90;;;;;;4979560;28;20206;-93
2021/12/11 12:54:50;;;;;;;0.10;0.10;;;6.00;99.90;;;;;;4995671;28;20305;-94
2021/12/11 12:57:26;;;;;;;0.10;0.10;;;6.00;99.90;;;;;;4995511;28;20557;-93
2021/12/11 13:00:02;;;;;;;1.40;1.40;;;6.00;99.90;;;;;;4979430;28;20214;-92
2021/12/11 13:02:36;;;;;;;0.17;0.17;;;6.00;99.90;;;;;;4993378;28;20238;-94
2021/12/11 13:05:14;;;;;;;0.10;0.10;;;6.10;99.90;;;;;;5017270;28;20205;-94
2021/12/11 13:08:00;;;;;;;0.10;0.10;;;6.10;99.90;;;;;;5016649;28;20191;-93
2021/12/11 13:10:36;;;;;;;0.83;0.20;;;6.10;99.90;;;;;;5012902;28;20191;-93
2021/12/11 13:13:09;;;;;;;0.10;0.10;;;6.20;99.90;;;;;;4998723;28;20289;-95
2021/12/11 13:15:44;;;;;;;0.10;0.10;;;6.10;99.90;;;;;;5001694;28;20677;-92
2021/12/11 13:18:19;;;;;;;0.20;0.20;;;6.20;99.90;;;;;;4994225;28;20293;-94
2021/12/11 13:20:54;;;;;;;0.20;0.20;;;6.10;99.90;;;;;;4978251;28;20257;-94
2021/12/11 13:23:28;;;;;;;0.30;0.20;;;6.20;99.90;;;;;;4978631;28;20664;-95
2021/12/11 13:26:02;;;;;;;9.63;6.67;;;6.30;99.90;;;;;;4996113;28;20249;-94
2021/12/11 13:28:38;;;;;;;3.10;2.93;;;6.30;99.90;;;;;;4992188;28;20235;-94
2021/12/11 13:31:12;;;;;;;0.80;0.80;;;6.30;99.90;;;;;;4986671;28;20552;-94
2021/12/11 13:33:44;;;;;;;0.50;0.20;;;6.30;99.90;;;;;;5001481;28;20245;-94
2021/12/11 13:36:20;;;;;;;0.10;0.10;;;6.30;99.90;;;;;;4985958;28;20318;-94
2021/12/11 13:38:58;;;;;;;0.10;0.10;;;6.20;99.90;;;;;;4991855;23;20267;-94
2021/12/11 13:41:33;;;;;;;0.50;0.50;;;6.30;99.90;;;;;;4977330;28;20717;-94
2021/12/11 13:44:16;;;;;;;0.10;0.10;;;6.30;99.90;;;;;;4958278;28;20290;-93
2021/12/11 13:46:52;;;;;;;0.20;0.20;;;6.30;99.90;;;;;;4967979;28;20212;-93
2021/12/11 13:49:24;;;;;;;0.10;0.10;;;6.30;99.90;;;;;;4960540;28;20215;-92
2021/12/11 13:51:57;;;;;;;1.90;1.80;;;6.30;99.90;;;;;;4978129;28;20297;-93
2021/12/11 13:54:31;;;;;;;10.10;9.47;;;6.30;99.90;;;;;;5026685;23;20265;-93
2021/12/11 13:57:07;;;;;;;0.10;0.10;;;6.40;99.90;;;;;;5002578;28;20233;-93
2021/12/11 13:59:39;;;;;;;0.10;0.10;;;6.30;99.90;;;;;;5001476;28;20274;-91
2021/12/11 14:02:14;;;;;;;0.53;0.10;;;6.30;99.90;;;;;;5002376;28;20627;-92
2021/12/11 14:04:45;;;;;;;0.10;0.10;;;6.30;99.90;;;;;;5001122;28;20201;-93
2021/12/11 14:07:20;;;;;;;0.20;0.13;;;6.30;99.90;;;;;;4998445;28;20233;-91
2021/12/11 14:09:56;;;;;;;6.23;2.57;;;6.30;99.90;;;;;;5002369;28;20209;-92
2021/12/11 14:12:31;;;;;;;9.23;8.63;;;6.50;99.90;;;;;;4989923;28;20272;-94
2021/12/11 14:15:03;;;;;;;0.10;0.10;;;6.60;99.90;;;;;;4995938;28;20634;-93
2021/12/11 14:17:35;;;;;;;0.43;0.43;;;6.60;99.90;;;;;;4995665;28;20212;-93
2021/12/11 14:20:08;;;;;;;0.20;0.20;;;6.70;99.90;;;;;;5006509;28;20214;-93
2021/12/11 14:22:39;;;;;;;5.77;5.40;;;6.60;99.90;;;;;;5001204;28;20591;-95
2021/12/11 14:25:16;;;;;;;5.40;5.00;;;6.70;99.90;;;;;;4984911;28;20218;-92
2021/12/11 14:27:47;;;;;;;24.03;8.20;;;6.70;99.90;;;;;;4997597;28;20305;-94
2021/12/11 14:30:21;;;;;;;0.10;0.10;;;6.80;99.90;;;;;;5005016;28;20214;-93
2021/12/11 14:32:54;;;;;;;3.43;1.17;;;6.80;99.90;;;;;;5006926;28;20241;-92
2021/12/11 14:35:28;;;;;;;0.17;0.17;;;6.80;99.90;;;;;;4999229;28;20230;-92